Weather at Knockbain Farm Airstrip

Public forecast

Using degrees Celsius for public forecast. Weather courtesy of forecast.io.

Closest aviation weather report (METAR) to Knockbain Farm Airstrip

Closest report is Inverness Airport, 13.8 nm (25.5 km) ESE.

2024/05/22 19:50 (retrieved 18 minutes ago)

EGPE 221950Z 34013KT 8000 RA SCT007 BKN015 OVC025 12/10 Q1009

Closest aviation forecast (TAF) to Knockbain Farm Airstrip

Closest forecast is RAF Lossiemouth, 36.9 nm (68.3 km) ENE.

2024/05/22 21:36 (retrieved 0 seconds ago)

TAF TAF EGQS 221931Z 2221/2315 36016KT 8000 -RA HZ OVC008 TEMPO 2221/2315 5000 -RADZ BKN005 PROB30 TEMPO 2221/2303 2000 RADZ BKN003 PROB30 TEMPO 2303/2315 1500 DZ BR BKN002 PROB40 TEMPO 2306/2312 01018G28KT